Time;durP1;ratioP1;P1;durP2;ratioP2;P2;SDS_P1;SDS_P2;PMS_P1;PMS_P2;Temp;Humidity;BMP_temperature;BMP_pressure;BME280_temperature;BME280_humidity;BME280_pressure;Samples;Min_cycle;Max_cycle;Signal;HPM_P1;HPM_P2
2023/01/15 00:01:46;;;;;;;35.23;1.00;;;10.50;99.90;;;;;;5011669;28;20249;-73
2023/01/15 00:04:12;;;;;;;34.07;0.90;;;10.50;99.90;;;;;;5011940;28;20425;-75
2023/01/15 00:06:39;;;;;;;34.50;0.70;;;10.50;99.90;;;;;;5012315;28;20270;-74
2023/01/15 00:09:06;;;;;;;30.43;0.77;;;10.50;99.90;;;;;;5011365;28;20582;-74
2023/01/15 00:11:32;;;;;;;33.50;0.70;;;10.60;99.90;;;;;;5009780;28;20906;-74
2023/01/15 00:13:58;;;;;;;34.77;0.70;;;10.60;99.90;;;;;;5011639;28;20469;-73
2023/01/15 00:16:24;;;;;;;35.10;0.70;;;10.60;99.90;;;;;;5010940;28;20206;-74
2023/01/15 00:18:54;;;;;;;35.00;0.70;;;10.60;99.90;;;;;;5011161;28;20267;-73
2023/01/15 00:21:21;;;;;;;35.30;0.60;;;10.60;99.90;;;;;;5010317;28;20503;-73
2023/01/15 00:29:18;;;;;;;36.70;0.70;;;10.60;99.90;;;;;;5011510;28;20480;-73
2023/01/15 00:31:50;;;;;;;35.40;0.80;;;10.60;99.90;;;;;;5010071;28;20924;-73
2023/01/15 00:34:16;;;;;;;34.83;0.70;;;10.60;99.90;;;;;;5011192;28;20523;-74
2023/01/15 00:36:41;;;;;;;35.77;0.90;;;10.70;99.90;;;;;;5010755;28;20429;-74
2023/01/15 00:39:07;;;;;;;35.70;0.60;;;10.60;99.90;;;;;;5014659;28;20214;-74
2023/01/15 00:41:33;;;;;;;43.90;1.07;;;10.60;99.90;;;;;;5013714;28;20280;-73
2023/01/15 00:43:58;;;;;;;45.33;0.80;;;10.70;99.90;;;;;;5014564;28;20618;-73
2023/01/15 00:46:24;;;;;;;32.67;0.80;;;10.70;99.90;;;;;;5014637;28;20248;-73
2023/01/15 00:48:49;;;;;;;35.67;0.80;;;10.70;99.90;;;;;;5014480;28;20269;-75
2023/01/15 00:51:15;;;;;;;38.90;0.83;;;10.70;99.90;;;;;;5014514;28;20901;-75
2023/01/15 00:53:40;;;;;;;36.93;0.83;;;10.70;99.90;;;;;;5013914;28;20210;-74
2023/01/15 00:56:06;;;;;;;40.47;0.77;;;10.70;99.90;;;;;;5014858;28;20751;-74
2023/01/15 00:58:31;;;;;;;40.83;0.70;;;10.70;99.90;;;;;;5014623;28;20202;-73
2023/01/15 01:00:59;;;;;;;42.13;0.80;;;10.70;99.90;;;;;;5014821;28;20224;-74
2023/01/15 01:03:25;;;;;;;41.43;0.90;;;10.70;99.90;;;;;;5014153;28;20233;-73
2023/01/15 01:05:51;;;;;;;40.70;0.70;;;10.70;99.90;;;;;;5011552;28;20429;-74
2023/01/15 01:08:17;;;;;;;30.27;0.80;;;10.70;99.90;;;;;;4994780;28;20429;-74
2023/01/15 01:10:43;;;;;;;31.60;0.80;;;10.80;99.90;;;;;;4994598;28;20176;-71
2023/01/15 01:13:09;;;;;;;32.20;0.80;;;10.70;99.90;;;;;;5003596;28;20501;-73
2023/01/15 01:15:35;;;;;;;32.57;0.80;;;10.70;99.90;;;;;;5013963;28;20552;-73
2023/01/15 01:18:02;;;;;;;31.57;0.70;;;10.70;99.90;;;;;;5014438;28;20278;-74
2023/01/15 01:20:28;;;;;;;34.10;0.83;;;10.70;99.90;;;;;;5014008;28;20409;-74
2023/01/15 01:22:54;;;;;;;34.80;0.70;;;10.80;99.90;;;;;;5013915;28;20525;-74
2023/01/15 01:25:20;;;;;;;34.90;0.70;;;10.80;99.90;;;;;;4996451;28;20210;-74
2023/01/15 01:27:45;;;;;;;32.67;0.90;;;10.80;99.90;;;;;;5013228;28;20487;-74
2023/01/15 01:30:12;;;;;;;35.57;0.60;;;10.80;99.90;;;;;;5014233;28;20194;-72
2023/01/15 01:32:38;;;;;;;36.53;0.60;;;10.80;99.90;;;;;;5012923;28;20297;-75
2023/01/15 01:35:04;;;;;;;38.50;0.80;;;10.80;99.90;;;;;;5013750;28;20610;-74
2023/01/15 01:37:29;;;;;;;38.27;0.60;;;10.90;99.90;;;;;;5013711;28;20261;-74
2023/01/15 01:39:55;;;;;;;37.97;0.70;;;10.90;99.90;;;;;;5013882;28;20461;-73
2023/01/15 01:42:22;;;;;;;38.07;0.60;;;10.90;99.90;;;;;;5013251;28;20602;-73
2023/01/15 01:44:50;;;;;;;33.97;0.60;;;10.90;99.90;;;;;;5013700;28;20195;-73
2023/01/15 01:47:21;;;;;;;35.63;0.60;;;11.00;99.90;;;;;;5013752;28;20425;-73
2023/01/15 01:49:51;;;;;;;37.57;0.83;;;11.00;99.90;;;;;;5012466;28;20480;-73
2023/01/15 01:52:30;;;;;;;34.97;0.60;;;10.90;99.90;;;;;;5012985;28;20437;-74
2023/01/15 01:54:56;;;;;;;32.63;0.60;;;10.90;99.90;;;;;;5013447;28;20519;-73
2023/01/15 01:57:23;;;;;;;35.60;0.80;;;10.90;99.90;;;;;;5013521;28;20445;-73
2023/01/15 01:59:50;;;;;;;36.80;0.63;;;10.90;99.90;;;;;;5013187;28;20705;-74
2023/01/15 03:32:53;;;;;;;0.70;0.40;;;11.50;99.90;;;;;;5187118;22;20563;-74
2023/01/15 03:35:43;;;;;;;0.60;0.40;;;11.50;99.90;;;;;;5016971;28;20542;-75
2023/01/15 03:38:11;;;;;;;0.60;0.40;;;11.60;99.90;;;;;;5010561;28;20994;-74
2023/01/15 03:40:47;;;;;;;0.90;0.50;;;11.60;99.90;;;;;;5010681;28;20493;-72
2023/01/15 03:46:06;;;;;;;0.60;0.40;;;11.70;99.90;;;;;;5021749;28;20999;-73
2023/01/15 03:49:01;;;;;;;1.23;0.50;;;11.80;99.90;;;;;;5013139;28;20987;-74
2023/01/15 03:51:43;;;;;;;1.13;0.40;;;11.80;99.90;;;;;;4941739;28;20499;-74
2023/01/15 03:54:31;;;;;;;0.60;0.40;;;11.80;99.90;;;;;;5012276;28;20835;-73
2023/01/15 03:57:12;;;;;;;0.60;0.37;;;11.80;99.90;;;;;;5011324;28;20574;-73
2023/01/15 03:59:46;;;;;;;0.70;0.40;;;11.90;99.90;;;;;;5010245;28;20513;-73
2023/01/15 04:02:14;;;;;;;0.80;0.40;;;12.00;99.90;;;;;;5009020;28;20421;-73
2023/01/15 04:04:40;;;;;;;0.60;0.40;;;12.00;99.90;;;;;;5010514;28;20952;-72
2023/01/15 04:07:06;;;;;;;0.60;0.40;;;12.00;99.90;;;;;;5029254;28;20432;-73
2023/01/15 04:09:35;;;;;;;0.60;0.40;;;11.90;99.90;;;;;;5030074;28;20416;-73
2023/01/15 04:12:01;;;;;;;0.70;0.40;;;12.00;99.90;;;;;;5029263;28;20202;-73
2023/01/15 04:14:29;;;;;;;0.70;0.40;;;12.00;99.90;;;;;;5034061;28;20526;-73
2023/01/15 04:16:54;;;;;;;0.70;0.40;;;12.00;99.90;;;;;;5032386;28;20204;-73
2023/01/15 04:19:20;;;;;;;1.57;0.40;;;12.10;99.90;;;;;;5033935;28;20425;-73
2023/01/15 04:21:45;;;;;;;0.60;0.40;;;12.00;99.90;;;;;;5017877;28;20256;-73
2023/01/15 04:24:11;;;;;;;1.07;0.40;;;12.00;99.90;;;;;;5014325;28;20261;-73
2023/01/15 04:26:37;;;;;;;0.60;0.40;;;12.00;99.90;;;;;;5029287;28;20208;-73
2023/01/15 04:29:02;;;;;;;0.60;0.40;;;12.00;99.90;;;;;;5033536;28;20201;-71
2023/01/15 04:31:28;;;;;;;0.60;0.40;;;12.00;99.90;;;;;;5033701;28;20576;-73
2023/01/15 04:33:53;;;;;;;0.57;0.30;;;12.00;99.90;;;;;;5021287;28;20417;-73
2023/01/15 04:36:18;;;;;;;0.60;0.40;;;12.00;99.90;;;;;;5008355;28;20178;-74
2023/01/15 04:38:44;;;;;;;0.60;0.40;;;12.00;99.90;;;;;;5033856;28;20181;-73
2023/01/15 04:44:05;;;;;;;0.60;0.40;;;12.10;99.90;;;;;;5033850;28;20239;-74
2023/01/15 04:46:45;;;;;;;0.60;0.40;;;12.10;99.90;;;;;;4999736;28;20418;-73
2023/01/15 04:49:13;;;;;;;0.70;0.40;;;12.10;99.90;;;;;;5012965;28;20512;-73
2023/01/15 04:51:39;;;;;;;0.60;0.40;;;12.10;99.90;;;;;;5014200;28;20450;-73
2023/01/15 04:54:06;;;;;;;0.50;0.40;;;12.10;99.90;;;;;;5013401;28;20449;-73
2023/01/15 04:56:37;;;;;;;0.70;0.40;;;12.10;99.90;;;;;;5013630;28;20740;-73
2023/01/15 04:59:02;;;;;;;0.60;0.33;;;12.10;99.90;;;;;;5015023;28;20524;-72
2023/01/15 05:01:28;;;;;;;0.60;0.40;;;12.00;99.90;;;;;;5018640;28;20528;-73
2023/01/15 05:03:53;;;;;;;0.50;0.40;;;12.00;99.90;;;;;;5013667;28;20191;-73
2023/01/15 05:06:19;;;;;;;0.50;0.33;;;12.10;99.90;;;;;;5032861;28;20186;-73
2023/01/15 05:08:45;;;;;;;0.67;0.40;;;12.10;99.90;;;;;;5033637;28;20235;-73
2023/01/15 05:11:11;;;;;;;0.50;0.30;;;12.10;99.90;;;;;;5021644;28;20266;-72
2023/01/15 05:13:36;;;;;;;0.60;0.40;;;12.00;99.90;;;;;;5013951;28;20413;-72
2023/01/15 05:16:11;;;;;;;1.00;0.30;;;12.00;99.90;;;;;;5013248;28;20317;-71
2023/01/15 05:18:37;;;;;;;0.60;0.30;;;12.00;99.90;;;;;;5013721;28;20201;-73
2023/01/15 05:21:03;;;;;;;0.60;0.40;;;11.70;99.90;;;;;;5022585;28;21230;-71
2023/01/15 05:23:28;;;;;;;83.30;30.80;;;11.10;99.90;;;;;;5032479;28;20440;-73
2023/01/15 05:25:54;;;;;;;5.13;0.50;;;10.50;99.90;;;;;;5032781;28;20174;-73
2023/01/15 05:28:20;;;;;;;4.13;0.60;;;10.00;99.90;;;;;;5032886;28;20173;-73
2023/01/15 05:30:45;;;;;;;1.97;0.50;;;9.60;99.90;;;;;;5025018;28;20285;-69
2023/01/15 05:33:10;;;;;;;88.63;8.30;;;9.40;99.90;;;;;;5029577;28;20734;-73
2023/01/15 05:35:36;;;;;;;436.07;71.70;;;9.20;99.90;;;;;;5032940;28;20212;-74
2023/01/15 05:38:05;;;;;;;9.17;0.60;;;9.00;99.90;;;;;;5032441;28;20173;-71
2023/01/15 05:40:30;;;;;;;12.30;0.50;;;8.90;99.90;;;;;;5027645;28;20507;-74
2023/01/15 05:42:56;;;;;;;17.17;0.93;;;8.80;99.90;;;;;;5011414;28;20468;-74
2023/01/15 05:45:21;;;;;;;1999.90;999.90;;;8.70;99.90;;;;;;5012900;28;20190;-72
2023/01/15 05:47:47;;;;;;;1999.90;999.90;;;8.60;99.90;;;;;;5012517;28;20269;-73
2023/01/15 05:50:12;;;;;;;133.60;96.77;;;8.50;99.90;;;;;;5014864;28;20206;-74
2023/01/15 05:52:38;;;;;;;97.10;38.10;;;8.40;99.90;;;;;;5031486;28;20223;-73
2023/01/15 05:55:04;;;;;;;131.77;25.03;;;8.40;99.90;;;;;;5032203;28;20207;-74
2023/01/15 05:57:31;;;;;;;0.93;0.50;;;8.40;99.90;;;;;;5032619;28;20713;-76
2023/01/15 05:59:57;;;;;;;1.30;0.50;;;8.20;99.90;;;;;;5019348;28;20180;-76
2023/01/15 06:02:22;;;;;;;1.33;0.50;;;8.20;99.90;;;;;;5031666;28;20447;-74
2023/01/15 06:04:48;;;;;;;1.20;0.43;;;8.10;99.90;;;;;;5031951;28;20193;-75
2023/01/15 06:07:16;;;;;;;1.10;0.50;;;8.10;99.90;;;;;;5032549;28;20185;-75
2023/01/15 06:09:41;;;;;;;0.90;0.40;;;8.10;99.90;;;;;;5031462;28;20176;-75
2023/01/15 06:12:07;;;;;;;69.80;10.60;;;8.00;99.90;;;;;;5013701;28;20484;-74
2023/01/15 06:14:32;;;;;;;192.40;31.90;;;8.00;99.90;;;;;;5029291;28;20264;-74
2023/01/15 06:16:58;;;;;;;154.43;40.43;;;7.90;99.90;;;;;;5032071;28;20175;-75
2023/01/15 06:19:23;;;;;;;447.33;108.37;;;7.90;99.90;;;;;;5031983;28;20183;-74
2023/01/15 06:21:49;;;;;;;0.50;0.33;;;7.90;99.90;;;;;;5020403;28;20552;-74
2023/01/15 06:24:16;;;;;;;0.50;0.40;;;7.90;99.90;;;;;;5031671;28;20191;-74
2023/01/15 06:26:42;;;;;;;0.40;0.30;;;7.80;99.90;;;;;;5003538;28;20192;-73
2023/01/15 06:29:07;;;;;;;0.50;0.30;;;7.80;99.90;;;;;;5011827;28;20909;-76
2023/01/15 06:31:33;;;;;;;0.57;0.40;;;7.70;99.90;;;;;;5013073;28;20221;-74
2023/01/15 06:33:58;;;;;;;2.17;1.20;;;7.60;99.90;;;;;;5032432;28;20204;-74
2023/01/15 06:36:25;;;;;;;0.60;0.40;;;7.60;99.90;;;;;;5032224;28;20182;-74
2023/01/15 06:38:51;;;;;;;0.60;0.30;;;7.60;99.90;;;;;;5033068;28;20234;-74
2023/01/15 06:49:36;;;;;;;1.90;0.60;;;7.40;99.90;;;;;;4991985;28;20421;-74
2023/01/15 06:52:02;;;;;;;0.50;0.50;;;7.30;99.90;;;;;;5002659;28;20510;-74
2023/01/15 06:54:28;;;;;;;0.50;0.40;;;7.30;99.90;;;;;;5031183;28;20897;-73
2023/01/15 06:56:54;;;;;;;0.40;0.40;;;7.20;99.90;;;;;;5031338;28;20540;-74
2023/01/15 06:59:19;;;;;;;0.50;0.47;;;7.10;99.90;;;;;;5030672;28;20281;-75
2023/01/15 07:01:45;;;;;;;1.30;0.50;;;7.00;99.90;;;;;;5027054;28;20201;-74
2023/01/15 07:04:10;;;;;;;0.40;0.30;;;6.90;99.90;;;;;;5011506;28;20588;-74
2023/01/15 07:06:36;;;;;;;0.47;0.40;;;6.90;99.90;;;;;;4993995;28;20176;-74
2023/01/15 07:09:02;;;;;;;0.40;0.40;;;6.80;99.90;;;;;;5010902;28;20265;-73
2023/01/15 07:11:27;;;;;;;0.40;0.33;;;6.80;99.90;;;;;;5010577;28;20199;-74
2023/01/15 07:14:04;;;;;;;0.37;0.37;;;6.70;99.90;;;;;;5030590;28;20185;-75
2023/01/15 07:16:34;;;;;;;0.73;0.40;;;6.70;99.90;;;;;;5031126;28;20177;-75
2023/01/15 07:19:00;;;;;;;0.50;0.30;;;6.60;99.90;;;;;;5030866;28;20442;-74
2023/01/15 07:21:25;;;;;;;0.40;0.30;;;6.60;99.90;;;;;;5029503;28;20433;-75
2023/01/15 07:23:51;;;;;;;0.30;0.30;;;6.50;99.90;;;;;;5010540;28;20420;-74
2023/01/15 07:26:17;;;;;;;0.30;0.30;;;6.50;99.90;;;;;;5011225;28;20629;-74
2023/01/15 07:28:42;;;;;;;0.40;0.30;;;6.40;99.90;;;;;;5010950;28;20177;-72
2023/01/15 07:31:08;;;;;;;0.40;0.40;;;6.40;99.90;;;;;;5010551;28;20252;-74
2023/01/15 07:33:33;;;;;;;0.50;0.40;;;6.40;99.90;;;;;;5028406;28;20185;-74
2023/01/15 07:36:03;;;;;;;0.40;0.40;;;6.30;99.90;;;;;;5030848;28;20220;-74
2023/01/15 07:38:29;;;;;;;0.43;0.40;;;6.30;99.90;;;;;;5030238;28;20657;-75
2023/01/15 07:51:56;;;;;;;14.63;0.60;;;6.20;99.90;;;;;;5014113;28;20450;-74
2023/01/15 07:54:22;;;;;;;14.83;0.50;;;6.10;99.90;;;;;;5030113;28;20468;-73
2023/01/15 07:56:48;;;;;;;15.27;0.50;;;6.10;99.90;;;;;;5031488;28;20570;-74
2023/01/15 07:59:14;;;;;;;20.67;0.60;;;6.10;99.90;;;;;;5030590;28;20180;-73
2023/01/15 08:01:39;;;;;;;19.10;0.57;;;6.10;99.90;;;;;;5028522;28;20436;-73
2023/01/15 08:04:05;;;;;;;16.83;0.50;;;6.10;99.90;;;;;;5010197;28;20678;-74
2023/01/15 08:06:30;;;;;;;17.13;0.50;;;6.10;99.90;;;;;;5012910;28;20185;-73
2023/01/15 08:08:55;;;;;;;19.70;0.53;;;6.10;99.90;;;;;;5042212;28;20187;-79
2023/01/15 08:16:49;;;;;;;10.70;0.50;;;6.20;99.90;;;;;;4990966;28;20431;-74
2023/01/15 08:19:14;;;;;;;10.83;0.50;;;6.20;99.90;;;;;;4991062;28;20425;-74
2023/01/15 08:21:40;;;;;;;66.07;59.70;;;6.20;99.90;;;;;;5006152;28;20633;-74
2023/01/15 08:24:06;;;;;;;108.70;16.70;;;6.20;99.90;;;;;;4994700;28;20239;-73
2023/01/15 08:26:31;;;;;;;125.13;72.53;;;6.20;99.90;;;;;;5008383;28;20255;-70
2023/01/15 08:28:58;;;;;;;71.37;3.00;;;6.20;99.90;;;;;;5009077;28;20219;-75
2023/01/15 08:31:23;;;;;;;61.27;1.27;;;6.20;99.90;;;;;;5007583;28;20306;-75
2023/01/15 08:33:49;;;;;;;61.83;1.30;;;6.20;99.90;;;;;;5017268;28;20561;-73
2023/01/15 08:36:15;;;;;;;69.10;2.30;;;6.20;99.90;;;;;;5008479;28;20217;-74
2023/01/15 08:38:41;;;;;;;66.20;2.50;;;6.20;99.90;;;;;;5011334;28;20603;-74
2023/01/15 08:41:06;;;;;;;65.27;1.90;;;6.20;99.90;;;;;;5010740;28;20455;-75
2023/01/15 08:43:32;;;;;;;62.97;1.70;;;6.20;99.90;;;;;;4993631;28;20223;-72
2023/01/15 08:46:03;;;;;;;55.10;0.90;;;6.20;99.90;;;;;;5008893;28;20241;-74
2023/01/15 08:48:30;;;;;;;54.00;0.90;;;6.20;99.90;;;;;;5008424;28;20227;-74
2023/01/15 08:50:56;;;;;;;56.20;1.00;;;6.20;99.90;;;;;;5009322;28;20534;-73
2023/01/15 08:53:23;;;;;;;56.27;0.90;;;6.10;99.90;;;;;;5022151;28;20500;-74
2023/01/15 08:55:49;;;;;;;56.50;0.97;;;6.20;99.90;;;;;;5029031;28;20213;-73
2023/01/15 08:58:15;;;;;;;55.73;0.90;;;6.20;99.90;;;;;;5016212;28;20476;-74
2023/01/15 09:00:42;;;;;;;50.07;0.70;;;6.20;99.90;;;;;;5012215;28;20951;-74
2023/01/15 09:03:08;;;;;;;51.23;0.70;;;6.10;99.90;;;;;;5023965;28;20545;-74
2023/01/15 09:05:35;;;;;;;24.57;0.60;;;6.10;99.90;;;;;;5032539;28;20473;-73
2023/01/15 09:08:00;;;;;;;21.27;0.60;;;6.10;99.90;;;;;;5024555;28;20716;-74
2023/01/15 09:10:26;;;;;;;18.70;0.70;;;6.10;99.90;;;;;;5012169;28;20523;-74
2023/01/15 09:12:51;;;;;;;18.87;0.60;;;6.10;99.90;;;;;;5018151;28;20265;-74
2023/01/15 09:15:17;;;;;;;19.30;0.60;;;6.20;99.90;;;;;;5012183;28;20546;-74
2023/01/15 09:17:42;;;;;;;19.53;0.60;;;6.20;99.90;;;;;;5012326;28;20213;-74
2023/01/15 09:20:10;;;;;;;20.70;0.80;;;6.20;99.90;;;;;;5012410;28;20194;-74
2023/01/15 09:22:36;;;;;;;20.10;0.60;;;6.20;99.90;;;;;;5012771;28;20253;-75
2023/01/15 09:25:02;;;;;;;20.80;1.00;;;6.20;99.90;;;;;;5012764;28;20452;-74
2023/01/15 09:27:28;;;;;;;20.47;0.77;;;6.20;99.90;;;;;;5012476;28;20220;-74
2023/01/15 09:29:54;;;;;;;20.63;0.80;;;6.30;99.90;;;;;;4994468;28;20703;-74
2023/01/15 09:32:19;;;;;;;20.57;0.73;;;6.30;99.90;;;;;;5022052;28;20887;-74
2023/01/15 09:34:45;;;;;;;20.13;0.60;;;6.30;99.90;;;;;;5033508;28;20509;-74
2023/01/15 09:37:10;;;;;;;20.53;0.67;;;6.30;99.90;;;;;;5021356;28;20292;-74
2023/01/15 09:39:37;;;;;;;20.13;0.70;;;6.30;99.90;;;;;;5012132;28;20291;-74
2023/01/15 09:42:24;;;;;;;20.13;0.70;;;6.30;99.90;;;;;;5017054;28;20219;-74
2023/01/15 09:45:27;;;;;;;20.17;0.67;;;6.30;99.90;;;;;;5031346;28;20912;-74
2023/01/15 09:48:14;;;;;;;22.27;2.00;;;6.40;99.90;;;;;;5013812;28;20459;-73
2023/01/15 09:51:08;;;;;;;2.37;1.10;;;6.40;99.90;;;;;;5031898;28;20485;-74
2023/01/15 09:53:53;;;;;;;2.07;1.37;;;6.40;99.90;;;;;;4976969;28;20473;-75
2023/01/15 09:56:26;;;;;;;3.03;1.93;;;6.40;99.90;;;;;;5011412;28;20471;-74
2023/01/15 09:58:52;;;;;;;0.90;0.60;;;6.40;99.90;;;;;;4993677;28;20840;-72
2023/01/15 10:01:24;;;;;;;1.67;1.57;;;6.40;99.90;;;;;;5010837;28;20435;-74
2023/01/15 10:04:11;;;;;;;2.33;0.70;;;6.30;99.90;;;;;;4991548;28;20502;-74
2023/01/15 10:06:44;;;;;;;0.60;0.50;;;6.30;99.90;;;;;;4992139;28;20431;-75
2023/01/15 10:09:18;;;;;;;0.60;0.60;;;6.40;99.90;;;;;;5008480;28;20476;-75
2023/01/15 10:14:42;;;;;;;2.67;0.60;;;6.20;99.90;;;;;;5014165;28;21077;-73
2023/01/15 10:17:19;;;;;;;161.03;63.90;;;6.10;99.90;;;;;;5030550;28;20439;-73
2023/01/15 10:19:45;;;;;;;135.67;53.37;;;6.10;99.90;;;;;;5030767;28;20459;-74
2023/01/15 10:22:28;;;;;;;283.17;76.63;;;6.10;99.90;;;;;;5018752;28;21001;-74
2023/01/15 10:24:57;;;;;;;335.80;65.53;;;6.10;99.90;;;;;;5008047;28;20593;-73
2023/01/15 10:27:27;;;;;;;1.27;0.77;;;6.10;99.90;;;;;;5009418;28;20491;-74
2023/01/15 10:30:14;;;;;;;0.90;0.67;;;6.10;99.90;;;;;;5008292;28;20820;-74
2023/01/15 10:32:49;;;;;;;0.90;0.67;;;6.10;99.90;;;;;;5029558;28;20548;-73
2023/01/15 10:35:40;;;;;;;111.67;8.40;;;6.00;99.90;;;;;;5029687;28;20578;-74
2023/01/15 10:38:24;;;;;;;0.90;0.50;;;6.00;99.90;;;;;;5011632;28;20541;-74
2023/01/15 10:41:30;;;;;;;1.77;1.17;;;5.80;99.90;;;;;;5012921;28;20832;-74
2023/01/15 10:44:26;;;;;;;1.10;0.50;;;5.70;99.90;;;;;;4941063;29;20475;-73
2023/01/15 10:46:59;;;;;;;1.47;0.77;;;5.70;99.90;;;;;;4991424;28;20935;-74
2023/01/15 10:49:28;;;;;;;3.13;0.63;;;5.70;99.90;;;;;;4990068;28;21637;-74
2023/01/15 10:52:13;;;;;;;2.13;0.80;;;5.60;99.90;;;;;;5014572;28;20448;-73
2023/01/15 10:54:44;;;;;;;0.70;0.50;;;5.40;99.90;;;;;;5029434;28;20508;-73
2023/01/15 10:57:50;;;;;;;0.60;0.40;;;5.40;99.90;;;;;;5030653;28;20642;-73
2023/01/15 11:00:16;;;;;;;0.83;0.47;;;5.30;99.90;;;;;;5028822;28;20452;-72
2023/01/15 11:03:10;;;;;;;0.80;0.60;;;5.20;99.90;;;;;;5029072;28;20480;-73
2023/01/15 11:05:37;;;;;;;0.60;0.40;;;5.20;99.90;;;;;;4990658;28;20452;-73
2023/01/15 11:08:10;;;;;;;0.60;0.40;;;5.10;99.90;;;;;;4998631;28;20481;-73
2023/01/15 11:10:37;;;;;;;0.80;0.40;;;5.10;99.90;;;;;;5011359;28;20816;-72
2023/01/15 11:21:31;;;;;;;0.90;0.60;;;5.00;99.90;;;;;;5020994;28;20778;-71
2023/01/15 11:23:59;;;;;;;1.00;0.60;;;4.90;99.90;;;;;;5018352;28;20468;-71
2023/01/15 11:26:25;;;;;;;0.60;0.40;;;4.90;99.90;;;;;;5030096;28;20615;-74
2023/01/15 11:28:52;;;;;;;0.90;0.40;;;4.80;99.90;;;;;;5029558;28;20429;-75
2023/01/15 11:31:18;;;;;;;0.60;0.40;;;4.80;99.90;;;;;;5028094;28;20507;-74
2023/01/15 11:33:56;;;;;;;0.60;0.40;;;4.70;99.90;;;;;;5028904;28;20433;-74
2023/01/15 11:36:24;;;;;;;0.60;0.50;;;4.60;99.90;;;;;;4990690;28;20442;-75
2023/01/15 11:38:50;;;;;;;0.60;0.40;;;4.50;99.90;;;;;;4990696;28;20776;-75
2023/01/15 11:41:21;;;;;;;0.60;0.40;;;4.50;99.90;;;;;;4990236;28;20428;-73
2023/01/15 11:52:15;;;;;;;0.80;0.40;;;4.40;99.90;;;;;;5008754;28;20463;-74
2023/01/15 11:54:47;;;;;;;0.80;0.40;;;4.40;99.90;;;;;;5013337;28;20468;-75
2023/01/15 11:57:27;;;;;;;1.37;0.50;;;4.40;99.90;;;;;;5010449;28;20433;-76
2023/01/15 11:59:52;;;;;;;0.60;0.40;;;4.40;99.90;;;;;;5009925;28;20414;-75
2023/01/15 12:02:44;;;;;;;0.80;0.40;;;4.50;99.90;;;;;;5009217;28;20484;-72
2023/01/15 12:05:17;;;;;;;0.70;0.50;;;4.50;99.90;;;;;;5010456;28;20190;-73
2023/01/15 12:07:44;;;;;;;0.80;0.40;;;4.50;99.90;;;;;;5010461;28;20429;-74
2023/01/15 12:11:02;;;;;;;0.60;0.40;;;4.50;99.90;;;;;;5010097;28;20838;-75
2023/01/15 12:13:21;;;;;;;0.80;0.40;;;4.50;99.90;;;;;;5008488;28;20430;-74
2023/01/15 12:16:17;;;;;;;0.50;0.30;;;4.50;99.90;;;;;;5029204;28;20456;-74
2023/01/15 12:18:59;;;;;;;1.87;0.40;;;4.50;99.90;;;;;;5030056;28;20748;-74
2023/01/15 12:21:47;;;;;;;0.60;0.40;;;4.50;99.90;;;;;;5029521;28;20443;-74
2023/01/15 12:24:37;;;;;;;1.13;0.50;;;4.50;99.90;;;;;;5022820;28;20464;-74
2023/01/15 12:27:23;;;;;;;0.90;0.40;;;4.50;99.90;;;;;;4986849;28;20512;-74
2023/01/15 12:29:53;;;;;;;0.60;0.50;;;4.50;99.90;;;;;;5008715;28;20517;-73
2023/01/15 12:32:28;;;;;;;0.60;0.40;;;4.50;99.90;;;;;;5008760;28;20996;-73
2023/01/15 12:34:58;;;;;;;1.30;0.30;;;4.40;99.90;;;;;;4998919;28;20472;-73
2023/01/15 12:37:28;;;;;;;0.50;0.30;;;4.50;99.90;;;;;;5012419;28;20417;-73
2023/01/15 12:40:24;;;;;;;0.60;0.40;;;4.50;99.90;;;;;;5012988;28;20448;-73
2023/01/15 12:45:46;;;;;;;0.73;0.50;;;4.60;99.90;;;;;;5030988;28;20440;-74
2023/01/15 12:48:25;;;;;;;4.97;0.50;;;4.60;99.90;;;;;;5025572;28;20479;-73
2023/01/15 12:50:53;;;;;;;0.70;0.40;;;4.60;99.90;;;;;;5024989;28;20519;-74
2023/01/15 12:53:25;;;;;;;1.87;0.50;;;4.60;99.90;;;;;;5012022;28;20442;-73
2023/01/15 12:56:08;;;;;;;0.80;0.60;;;4.60;99.90;;;;;;4994010;28;20472;-74
2023/01/15 12:59:11;;;;;;;2.10;0.50;;;4.70;99.90;;;;;;5010450;28;20413;-74
2023/01/15 13:01:57;;;;;;;3.40;0.40;;;4.70;99.90;;;;;;5009498;28;20588;-72
2023/01/15 13:04:27;;;;;;;2.73;0.50;;;4.70;99.90;;;;;;4991259;28;20434;-74
2023/01/15 13:07:02;;;;;;;0.70;0.50;;;4.80;99.90;;;;;;5005370;28;20901;-73
2023/01/15 13:09:44;;;;;;;2.73;0.60;;;4.80;99.90;;;;;;5010049;28;20421;-74
2023/01/15 13:12:13;;;;;;;1.20;0.50;;;4.90;99.90;;;;;;5009095;28;21065;-74
2023/01/15 13:14:38;;;;;;;1.07;0.60;;;4.90;99.90;;;;;;5012043;28;21017;-73
2023/01/15 13:17:16;;;;;;;19.63;1.33;;;5.00;99.90;;;;;;5015409;28;20491;-74
2023/01/15 13:19:48;;;;;;;0.77;0.50;;;5.10;99.90;;;;;;5010031;28;20552;-73
2023/01/15 13:22:21;;;;;;;0.70;0.40;;;5.10;99.90;;;;;;5010640;28;20451;-74
2023/01/15 13:24:52;;;;;;;2.20;0.40;;;5.10;99.90;;;;;;5009515;28;20821;-73
2023/01/15 13:27:46;;;;;;;1.73;0.53;;;5.20;99.90;;;;;;5018970;28;20989;-74
2023/01/15 13:30:30;;;;;;;2.13;0.50;;;5.30;99.90;;;;;;5018010;28;20454;-74
2023/01/15 13:33:15;;;;;;;1.73;0.70;;;5.30;99.90;;;;;;5023794;28;20484;-73
2023/01/15 13:35:47;;;;;;;1.30;0.50;;;5.40;99.90;;;;;;5025080;28;20973;-74
2023/01/15 13:38:20;;;;;;;1.37;0.70;;;5.40;99.90;;;;;;5026125;28;20421;-74
2023/01/15 13:40:50;;;;;;;1.10;0.57;;;5.50;99.90;;;;;;5028618;28;20415;-74
2023/01/15 13:43:26;;;;;;;0.90;0.40;;;5.50;99.90;;;;;;4989519;28;20419;-72
2023/01/15 13:45:51;;;;;;;3.20;0.57;;;5.60;99.90;;;;;;4988411;28;20945;-74
2023/01/15 13:48:54;;;;;;;0.87;0.47;;;5.70;99.90;;;;;;4990169;28;20453;-73
2023/01/15 13:51:29;;;;;;;1.03;0.40;;;5.70;99.90;;;;;;4997013;28;20252;-73
2023/01/15 13:53:56;;;;;;;1.27;0.47;;;5.70;99.90;;;;;;5017001;28;20419;-73
2023/01/15 13:56:31;;;;;;;1.93;0.50;;;5.70;99.90;;;;;;5018105;28;20530;-73
2023/01/15 13:59:02;;;;;;;1.07;0.40;;;5.70;99.90;;;;;;5014445;28;20911;-74
2023/01/15 14:01:34;;;;;;;1.93;0.60;;;5.80;99.90;;;;;;5008182;28;20448;-74
2023/01/15 14:04:03;;;;;;;1.00;0.50;;;5.90;99.90;;;;;;5011495;28;20437;-74
2023/01/15 14:06:57;;;;;;;1.47;0.50;;;5.90;99.90;;;;;;5013309;28;20509;-74
2023/01/15 14:09:23;;;;;;;1.13;0.53;;;5.90;99.90;;;;;;5012302;28;20427;-74
2023/01/15 14:12:06;;;;;;;1.40;0.50;;;5.90;99.90;;;;;;5029431;28;20442;-74
2023/01/15 14:15:09;;;;;;;1.93;0.60;;;5.90;99.90;;;;;;5030601;28;20213;-74
2023/01/15 14:17:54;;;;;;;1.03;0.50;;;5.90;99.90;;;;;;5030888;28;20411;-74
2023/01/15 14:20:35;;;;;;;0.90;0.40;;;5.90;99.90;;;;;;5010184;28;20426;-74
2023/01/15 14:23:17;;;;;;;1.53;0.50;;;5.90;99.90;;;;;;5028608;28;20435;-73
2023/01/15 14:26:12;;;;;;;2.20;0.63;;;5.80;99.90;;;;;;5030506;28;20832;-73
2023/01/15 14:28:43;;;;;;;3.30;0.90;;;5.80;99.90;;;;;;5026605;28;20847;-73
2023/01/15 14:31:38;;;;;;;0.80;0.60;;;5.90;99.90;;;;;;5027364;28;20972;-74
2023/01/15 14:34:09;;;;;;;2.90;0.43;;;5.90;99.90;;;;;;5012529;28;20422;-74
2023/01/15 14:37:03;;;;;;;0.87;0.50;;;5.90;99.90;;;;;;5011811;28;20411;-74
2023/01/15 14:39:47;;;;;;;2.93;0.60;;;5.90;99.90;;;;;;5012261;28;20514;-74
2023/01/15 14:45:10;;;;;;;3.77;0.70;;;5.80;99.90;;;;;;4996708;28;20825;-73
2023/01/15 14:47:45;;;;;;;4.10;0.87;;;5.80;99.90;;;;;;5011584;28;20419;-73
2023/01/15 14:50:44;;;;;;;2.03;0.50;;;5.80;99.90;;;;;;5011159;28;20331;-73
2023/01/15 14:53:12;;;;;;;3.00;0.73;;;5.70;99.90;;;;;;4976125;28;20448;-73
2023/01/15 14:55:46;;;;;;;3.07;0.77;;;5.70;99.90;;;;;;5019926;28;20521;-73
2023/01/15 14:58:37;;;;;;;1.70;0.70;;;5.70;99.90;;;;;;5011650;28;20473;-74
2023/01/15 15:01:33;;;;;;;1.10;0.60;;;5.70;99.90;;;;;;5012583;28;20455;-71
2023/01/15 15:04:11;;;;;;;1.20;0.60;;;5.60;99.90;;;;;;5021791;28;20449;-72
2023/01/15 15:07:02;;;;;;;1.63;0.50;;;5.60;99.90;;;;;;5017542;28;20422;-73
2023/01/15 15:09:40;;;;;;;1.73;0.70;;;5.60;99.90;;;;;;5031432;28;20862;-73
2023/01/15 15:12:30;;;;;;;5.13;0.90;;;5.60;99.90;;;;;;5027954;28;20819;-73
2023/01/15 15:15:06;;;;;;;1.87;0.50;;;5.50;99.90;;;;;;5011682;28;20466;-72
2023/01/15 15:17:50;;;;;;;2.63;0.57;;;5.50;99.90;;;;;;5011498;28;20800;-73
2023/01/15 15:20:30;;;;;;;1.07;0.60;;;5.40;99.90;;;;;;5009108;28;20497;-72
2023/01/15 15:23:09;;;;;;;1.90;0.83;;;5.40;99.90;;;;;;5019057;28;20419;-74
2023/01/15 15:25:37;;;;;;;1.10;0.70;;;5.30;99.90;;;;;;4990131;28;20527;-73
2023/01/15 15:28:05;;;;;;;3.00;0.90;;;5.30;99.90;;;;;;5008515;28;20600;-74
2023/01/15 15:30:34;;;;;;;3.03;0.70;;;5.30;99.90;;;;;;4989599;28;20713;-73
2023/01/15 15:33:03;;;;;;;4.17;0.60;;;5.30;99.90;;;;;;5008529;28;20559;-74
2023/01/15 15:35:31;;;;;;;0.90;0.40;;;5.30;99.90;;;;;;5027679;28;20469;-73
2023/01/15 15:38:02;;;;;;;1.53;0.50;;;5.20;99.90;;;;;;5025754;28;20416;-72
2023/01/15 15:40:32;;;;;;;1.83;0.80;;;5.10;99.90;;;;;;5007514;28;20464;-73
2023/01/15 15:48:40;;;;;;;2.53;0.70;;;5.10;99.90;;;;;;5007007;28;20432;-73